Time;durP1;ratioP1;P1;durP2;ratioP2;P2;SDS_P1;SDS_P2;PMS_P1;PMS_P2;Temp;Humidity;BMP_temperature;BMP_pressure;BME280_temperature;BME280_humidity;BME280_pressure;Samples;Min_cycle;Max_cycle;Signal;HPM_P1;HPM_P2
2021/11/30 00:02:25;;;;;;;18.02;10.40;;;;;;;2.83;100.00;100416.00;10140368;28;20070;-69
2021/11/30 00:07:21;;;;;;;17.52;9.77;;;;;;;2.78;100.00;100391.69;10141890;28;20394;-68
2021/11/30 00:12:21;;;;;;;17.98;10.27;;;;;;;2.80;100.00;100384.94;10168568;28;20046;-68
2021/11/30 00:17:18;;;;;;;16.02;9.77;;;;;;;2.81;100.00;100388.44;10145019;28;20089;-71
2021/11/30 00:22:19;;;;;;;16.88;9.82;;;;;;;2.80;100.00;100373.34;10159061;28;20046;-71
2021/11/30 00:27:16;;;;;;;20.17;10.68;;;;;;;2.72;100.00;100367.41;10145493;28;20050;-69
2021/11/30 00:32:14;;;;;;;15.30;7.65;;;;;;;2.71;100.00;100368.50;10168770;28;20070;-68
2021/11/30 00:37:11;;;;;;;17.05;10.63;;;;;;;2.77;100.00;100346.91;10156706;28;20106;-70
2021/11/30 00:42:08;;;;;;;19.10;9.85;;;;;;;2.69;100.00;100330.19;10144944;28;20046;-71
2021/11/30 00:47:05;;;;;;;15.50;9.85;;;;;;;2.70;100.00;100331.78;10148795;28;20080;-71
2021/11/30 00:52:02;;;;;;;16.83;10.43;;;;;;;2.62;100.00;100331.53;10167836;28;20107;-70
2021/11/30 00:56:58;;;;;;;18.05;10.63;;;;;;;2.63;100.00;100320.47;10159614;28;20117;-70
2021/11/30 01:01:56;;;;;;;19.05;10.85;;;;;;;2.61;100.00;100305.63;10155280;28;20074;-70
2021/11/30 01:06:54;;;;;;;19.63;11.52;;;;;;;2.64;100.00;100316.69;10140398;28;20524;-69
2021/11/30 01:11:51;;;;;;;18.58;11.85;;;;;;;2.62;100.00;100281.09;10149199;28;20501;-68
2021/11/30 01:16:48;;;;;;;20.08;12.38;;;;;;;2.65;100.00;100269.72;10147754;28;20054;-69
2021/11/30 01:21:45;;;;;;;20.52;12.32;;;;;;;2.68;100.00;100258.38;10156812;28;20113;-70
2021/11/30 01:26:41;;;;;;;22.88;12.98;;;;;;;2.72;100.00;100248.63;10157850;28;20505;-70
2021/11/30 01:31:39;;;;;;;21.65;12.13;;;;;;;2.70;100.00;100250.81;10174293;28;20406;-68
2021/11/30 01:36:36;;;;;;;21.30;12.40;;;;;;;2.73;100.00;100239.44;10171470;28;20049;-68
2021/11/30 01:41:35;;;;;;;19.08;11.60;;;;;;;2.79;100.00;100231.34;10156061;28;20097;-68
2021/11/30 01:51:48;;;;;;;19.55;11.15;;;;;;;2.87;100.00;100219.94;10168610;28;20100;-68
2021/11/30 01:56:44;;;;;;;21.35;13.05;;;;;;;2.89;100.00;100215.06;10178280;28;20076;-68
2021/11/30 02:01:41;;;;;;;20.75;13.00;;;;;;;2.90;100.00;100192.38;10151359;28;20430;-70
2021/11/30 02:06:38;;;;;;;20.17;12.07;;;;;;;2.72;100.00;100189.25;10144178;28;20042;-70
2021/11/30 02:11:35;;;;;;;21.40;12.32;;;;;;;2.58;100.00;100171.25;10160494;28;20042;-73
2021/11/30 02:16:32;;;;;;;21.77;12.20;;;;;;;2.40;100.00;100156.47;10153699;28;20052;-69
2021/11/30 02:21:41;;;;;;;20.40;12.30;;;;;;;2.42;100.00;100135.44;10162435;28;20046;-69
2021/11/30 02:26:39;;;;;;;21.75;13.63;;;;;;;2.48;100.00;100112.72;10155380;28;20043;-69
2021/11/30 02:31:45;;;;;;;18.88;13.15;;;;;;;2.43;100.00;100088.47;10175237;28;20050;-70
2021/11/30 02:41:41;;;;;;;15.63;10.57;;;;;;;2.45;100.00;100054.72;10151565;28;20494;-70
2021/11/30 02:46:41;;;;;;;16.55;11.18;;;;;;;2.47;100.00;100035.56;10138859;28;20089;-71
2021/11/30 02:51:42;;;;;;;14.80;9.65;;;;;;;2.45;100.00;100021.53;10149531;28;20129;-71
2021/11/30 02:56:41;;;;;;;16.10;10.90;;;;;;;2.52;100.00;99997.75;10165578;28;20461;-72
2021/11/30 03:01:41;;;;;;;11.88;8.68;;;;;;;2.54;100.00;99982.06;10144637;28;20145;-71
2021/11/30 03:06:38;;;;;;;13.68;8.70;;;;;;;2.53;100.00;99965.09;10148051;28;20038;-68
2021/11/30 03:11:37;;;;;;;11.25;7.65;;;;;;;2.48;100.00;99967.81;10162435;28;20049;-71
2021/11/30 03:16:34;;;;;;;12.75;8.23;;;;;;;2.54;100.00;99949.69;10155630;28;20046;-71
2021/11/30 03:21:32;;;;;;;13.00;7.68;;;;;;;2.52;100.00;99922.19;10154521;28;20096;-70
2021/11/30 03:26:29;;;;;;;13.23;7.68;;;;;;;2.52;100.00;99903.28;10150750;28;20809;-68
2021/11/30 03:31:47;;;;;;;10.63;7.13;;;;;;;2.59;100.00;99878.66;10167906;28;20053;-72
2021/11/30 03:36:47;;;;;;;14.30;9.25;;;;;;;2.41;100.00;99885.56;10159136;28;20138;-72
2021/11/30 03:41:45;;;;;;;13.75;7.57;;;;;;;2.42;100.00;99838.63;10161739;28;20070;-71
2021/11/30 03:46:42;;;;;;;11.43;7.57;;;;;;;2.43;100.00;99829.44;10143528;28;20043;-70
2021/11/30 03:51:41;;;;;;;12.57;8.10;;;;;;;2.36;100.00;99808.19;10158379;28;20498;-72
2021/11/30 03:56:38;;;;;;;13.75;8.68;;;;;;;2.37;100.00;99793.63;10162431;28;20049;-71
2021/11/30 04:01:35;;;;;;;12.77;8.07;;;;;;;2.36;100.00;99775.03;10167130;28;20621;-71
2021/11/30 04:06:32;;;;;;;9.27;6.57;;;;;;;2.31;100.00;99757.78;10148546;28;20137;-71
2021/11/30 04:11:31;;;;;;;11.00;6.97;;;;;;;2.26;100.00;99744.38;10157249;28;20121;-70
2021/11/30 04:16:28;;;;;;;10.05;7.22;;;;;;;2.26;100.00;99712.00;10160548;28;20050;-70
2021/11/30 04:21:25;;;;;;;11.07;7.10;;;;;;;2.28;100.00;99676.66;10147922;28;20053;-70
2021/11/30 04:26:21;;;;;;;27.55;6.75;;;;;;;2.25;100.00;99669.94;10142881;28;20133;-71
2021/11/30 04:31:18;;;;;;;9.15;6.50;;;;;;;2.23;100.00;99661.34;10163539;28;20046;-71
2021/11/30 04:36:14;;;;;;;424.25;24.67;;;;;;;2.26;100.00;99662.66;10151335;28;20174;-70
2021/11/30 04:41:11;;;;;;;8.95;7.10;;;;;;;2.31;100.00;99622.13;10152394;28;20088;-71
2021/11/30 04:46:14;;;;;;;168.40;12.40;;;;;;;2.31;100.00;99633.72;10145055;28;20505;-72
2021/11/30 04:51:13;;;;;;;11.23;7.68;;;;;;;2.36;100.00;99610.47;10158531;28;20054;-72
2021/11/30 04:56:12;;;;;;;12.90;8.18;;;;;;;2.36;100.00;99596.97;10140842;28;20042;-72
2021/11/30 05:01:09;;;;;;;12.00;8.98;;;;;;;2.43;100.00;99573.13;10161073;28;20050;-71
2021/11/30 05:06:07;;;;;;;12.77;9.30;;;;;;;2.48;100.00;99554.16;10145408;28;20099;-70
2021/11/30 05:11:04;;;;;;;15.65;10.85;;;;;;;2.48;100.00;99557.69;10155831;28;20042;-72
2021/11/30 05:16:00;;;;;;;10.88;8.80;;;;;;;2.53;100.00;99554.13;10140099;28;20069;-71
2021/11/30 05:20:59;;;;;;;14.27;11.57;;;;;;;2.62;100.00;99530.78;10133108;28;20422;-70
2021/11/30 05:26:03;;;;;;;12.95;7.97;;;;;;;2.63;100.00;99521.56;10115029;28;20547;-70
2021/11/30 05:31:07;;;;;;;325.83;20.25;;;;;;;2.71;100.00;99514.69;10115482;28;20123;-70
2021/11/30 05:36:05;;;;;;;10.93;9.10;;;;;;;2.79;100.00;99499.75;10119737;28;20749;-69
2021/11/30 05:41:02;;;;;;;12.05;9.00;;;;;;;2.86;100.00;99502.84;10123276;28;20067;-70
2021/11/30 05:46:04;;;;;;;14.05;9.63;;;;;;;2.92;100.00;99496.25;10121028;28;20054;-70
2021/11/30 05:51:07;;;;;;;11.55;8.75;;;;;;;2.98;100.00;99481.56;10119022;28;20577;-71
2021/11/30 05:56:08;;;;;;;14.35;11.35;;;;;;;3.01;100.00;99461.28;10141525;28;20050;-70
2021/11/30 06:01:20;;;;;;;11.55;8.90;;;;;;;3.07;100.00;99497.91;10144593;28;20100;-70
2021/11/30 06:06:17;;;;;;;11.43;9.18;;;;;;;3.11;100.00;99478.09;10131180;28;20047;-66
2021/11/30 06:11:14;;;;;;;12.30;8.95;;;;;;;3.18;100.00;99466.91;10122915;28;20051;-70
2021/11/30 06:16:11;;;;;;;11.32;8.50;;;;;;;3.26;100.00;99473.50;10128700;28;20112;-68
2021/11/30 06:21:10;;;;;;;15.70;12.05;;;;;;;3.34;100.00;99464.69;10132726;28;20549;-69
2021/11/30 06:26:08;;;;;;;12.60;11.23;;;;;;;3.41;100.00;99440.75;10128733;28;20101;-71
2021/11/30 06:31:06;;;;;;;12.77;11.13;;;;;;;3.49;100.00;99467.09;10136680;28;20078;-72
2021/11/30 06:36:04;;;;;;;12.65;10.35;;;;;;;3.54;100.00;99453.47;10157175;28;20223;-72
2021/11/30 06:41:00;;;;;;;10.75;8.38;;;;;;;3.63;100.00;99455.47;10165077;28;20043;-72
2021/11/30 06:45:57;;;;;;;10.13;7.25;;;;;;;3.72;100.00;99469.91;10149323;28;20084;-72
2021/11/30 06:50:53;;;;;;;12.10;8.13;;;;;;;3.77;100.00;99467.06;10173799;28;20417;-72
2021/11/30 06:55:53;;;;;;;9.68;6.22;;;;;;;3.87;100.00;99477.66;10159856;28;20046;-68
2021/11/30 07:00:52;;;;;;;15.48;9.43;;;;;;;3.92;100.00;99480.28;10160640;28;20042;-72
2021/11/30 07:06:03;;;;;;;13.73;9.15;;;;;;;3.99;100.00;99472.56;10164794;28;20402;-72
2021/11/30 07:11:07;;;;;;;9.15;5.97;;;;;;;4.10;100.00;99453.38;10157968;28;20046;-72
2021/11/30 07:16:05;;;;;;;9.50;7.30;;;;;;;4.22;100.00;99473.38;10139336;28;20077;-72
2021/11/30 07:21:02;;;;;;;11.52;7.25;;;;;;;4.36;100.00;99484.16;10157973;28;20050;-73
2021/11/30 07:26:00;;;;;;;16.33;7.45;;;;;;;4.48;100.00;99485.50;10151509;28;20129;-72
2021/11/30 07:31:03;;;;;;;12.88;5.60;;;;;;;4.53;100.00;99471.88;10154402;28;20053;-73
2021/11/30 07:36:02;;;;;;;14.77;4.22;;;;;;;4.60;100.00;99466.81;10140398;28;20047;-71
2021/11/30 07:40:59;;;;;;;13.55;3.53;;;;;;;4.65;100.00;99455.84;10128153;28;20057;-69
2021/11/30 07:45:56;;;;;;;16.65;3.90;;;;;;;4.72;100.00;99468.97;10133940;28;20050;-72
2021/11/30 07:50:54;;;;;;;17.50;3.97;;;;;;;4.75;100.00;99444.75;10135911;28;20137;-71
2021/11/30 07:55:51;;;;;;;17.58;3.00;;;;;;;4.83;100.00;99454.84;10135602;28;20054;-70
2021/11/30 08:00:49;;;;;;;17.92;3.78;;;;;;;4.83;100.00;99449.44;10133954;28;20101;-73
2021/11/30 08:05:46;;;;;;;13.95;1.92;;;;;;;4.93;100.00;99453.00;10140068;28;20042;-71
2021/11/30 08:10:42;;;;;;;22.92;3.63;;;;;;;4.95;100.00;99445.34;10143053;28;20127;-72
2021/11/30 08:15:39;;;;;;;23.73;3.13;;;;;;;4.97;100.00;99443.13;10142808;28;20050;-71
2021/11/30 08:20:36;;;;;;;24.80;3.55;;;;;;;5.02;100.00;99461.97;10148000;28;20052;-73
2021/11/30 08:25:33;;;;;;;22.23;4.05;;;;;;;5.06;100.00;99446.69;10137718;28;20046;-69
2021/11/30 08:30:30;;;;;;;23.73;3.63;;;;;;;5.05;100.00;99445.88;10149161;28;20046;-70
2021/11/30 08:35:27;;;;;;;17.80;2.75;;;;;;;5.09;100.00;99450.69;10150379;28;20061;-72
2021/11/30 08:40:24;;;;;;;16.27;2.33;;;;;;;5.11;100.00;99448.47;10148746;28;20077;-71
2021/11/30 08:45:20;;;;;;;25.48;3.03;;;;;;;5.15;100.00;99466.50;10131199;28;20100;-70
2021/11/30 08:50:18;;;;;;;23.85;4.15;;;;;;;5.21;100.00;99476.06;10162323;28;20054;-71
2021/11/30 08:55:16;;;;;;;19.80;3.05;;;;;;;5.20;100.00;99465.56;10161288;28;20122;-73
2021/11/30 09:00:16;;;;;;;30.95;3.40;;;;;;;5.24;100.00;99469.22;10159055;28;20058;-71
2021/11/30 09:05:13;;;;;;;37.90;3.25;;;;;;;5.28;100.00;99471.00;10144515;28;20042;-71
2021/11/30 09:10:10;;;;;;;19.05;2.28;;;;;;;5.31;100.00;99476.91;10148737;28;20422;-72
2021/11/30 09:15:08;;;;;;;31.80;4.10;;;;;;;5.32;100.00;99492.06;10153150;28;20556;-69
2021/11/30 09:20:21;;;;;;;15.75;3.03;;;;;;;5.33;100.00;99477.41;10144619;28;20055;-71
2021/11/30 09:25:20;;;;;;;30.75;3.97;;;;;;;5.33;100.00;99472.75;10138803;28;20053;-71
2021/11/30 09:30:19;;;;;;;17.10;2.35;;;;;;;5.35;100.00;99483.31;10152091;28;20046;-73
2021/11/30 09:35:19;;;;;;;20.40;2.60;;;;;;;5.37;100.00;99478.38;10152975;28;20057;-72
2021/11/30 09:40:20;;;;;;;18.92;3.65;;;;;;;5.40;100.00;99461.47;10154030;28;20112;-71
2021/11/30 09:45:38;;;;;;;17.80;2.13;;;;;;;5.41;100.00;99457.66;10138782;28;20053;-72
2021/11/30 09:50:35;;;;;;;17.70;2.58;;;;;;;5.44;100.00;99462.44;10163634;28;20129;-69
2021/11/30 09:55:32;;;;;;;15.65;2.72;;;;;;;5.52;100.00;99474.44;10158045;28;20055;-72
2021/11/30 10:00:29;;;;;;;19.15;3.80;;;;;;;5.54;100.00;99459.44;10150788;28;20145;-72
2021/11/30 10:05:26;;;;;;;21.23;2.47;;;;;;;5.57;100.00;99464.25;10150387;28;20510;-69
2021/11/30 10:10:27;;;;;;;19.63;3.78;;;;;;;5.59;100.00;99463.91;10165872;28;20051;-72
2021/11/30 10:15:26;;;;;;;20.20;2.80;;;;;;;5.65;100.00;99451.81;10139871;28;20619;-67
2021/11/30 10:20:24;;;;;;;28.02;2.53;;;;;;;5.71;100.00;99456.00;10152810;28;20053;-72
2021/11/30 10:25:34;;;;;;;19.98;2.75;;;;;;;5.80;100.00;99469.56;10144843;28;20058;-69
2021/11/30 10:30:37;;;;;;;27.10;3.53;;;;;;;5.82;100.00;99461.91;10149837;28;20069;-72
2021/11/30 10:35:34;;;;;;;19.80;3.20;;;;;;;5.82;100.00;99480.88;10158649;28;20054;-71
2021/11/30 10:40:35;;;;;;;20.52;4.82;;;;;;;5.85;100.00;99499.25;10173334;28;20050;-71
2021/11/30 10:45:37;;;;;;;30.52;4.35;;;;;;;5.89;100.00;99505.63;10148895;28;20050;-73
2021/11/30 10:50:39;;;;;;;29.13;4.70;;;;;;;5.95;100.00;99482.72;10154912;28;20074;-71
2021/11/30 10:55:36;;;;;;;25.10;3.80;;;;;;;6.05;100.00;99492.44;10139807;28;20065;-69
2021/11/30 11:00:33;;;;;;;19.25;3.10;;;;;;;6.05;100.00;99498.66;10125942;28;20050;-69
2021/11/30 11:05:35;;;;;;;16.92;2.47;;;;;;;5.95;100.00;99496.28;10127831;28;20558;-72
2021/11/30 11:10:34;;;;;;;13.90;2.53;;;;;;;5.87;100.00;99524.13;10135742;28;20554;-68
2021/11/30 11:15:39;;;;;;;17.55;2.60;;;;;;;5.90;100.00;99499.91;10135375;28;20047;-73
2021/11/30 11:20:36;;;;;;;25.25;3.88;;;;;;;5.96;100.00;99503.28;10137843;28;20097;-71
2021/11/30 11:25:33;;;;;;;21.45;3.35;;;;;;;6.08;99.84;99519.75;10137437;28;20051;-69
2021/11/30 11:30:29;;;;;;;16.13;1.95;;;;;;;6.07;94.08;99512.72;10129938;28;20158;-70
2021/11/30 11:35:26;;;;;;;31.70;4.30;;;;;;;6.08;96.86;99513.50;10122822;28;20051;-70
2021/11/30 11:40:23;;;;;;;23.58;3.85;;;;;;;6.05;93.24;99517.66;10113311;28;20051;-70
2021/11/30 11:45:19;;;;;;;23.42;3.92;;;;;;;6.05;93.87;99512.25;10112950;28;20082;-70
2021/11/30 11:50:17;;;;;;;24.15;3.20;;;;;;;6.08;93.67;99525.19;10115393;28;20051;-70
2021/11/30 11:55:21;;;;;;;19.33;2.83;;;;;;;6.00;90.17;99572.09;10128143;28;20138;-70
2021/11/30 12:00:30;;;;;;;14.77;2.00;;;;;;;5.97;90.87;99512.25;10130196;28;20124;-70
2021/11/30 12:05:53;;;;;;;19.83;4.35;;;;;;;6.06;91.17;99522.00;10124779;28;20057;-70
2021/11/30 12:10:51;;;;;;;21.08;3.13;;;;;;;6.12;91.76;99541.63;10138670;28;20501;-70
2021/11/30 12:16:06;;;;;;;19.35;3.28;;;;;;;6.15;92.51;99534.75;10134762;28;20038;-70
2021/11/30 12:21:07;;;;;;;23.02;3.42;;;;;;;6.05;95.41;99552.94;10139768;28;20162;-70
2021/11/30 12:26:28;;;;;;;20.15;2.45;;;;;;;5.95;97.03;99541.59;10135665;28;20521;-70
2021/11/30 12:31:30;;;;;;;18.40;4.03;;;;;;;5.86;98.02;99555.09;10144198;28;20070;-70
2021/11/30 12:36:34;;;;;;;22.73;4.05;;;;;;;5.93;96.98;99533.75;10143233;28;20101;-70
2021/11/30 12:41:36;;;;;;;20.27;2.75;;;;;;;5.96;96.72;99527.69;10153353;28;20100;-70
2021/11/30 12:46:40;;;;;;;20.20;2.22;;;;;;;6.09;97.98;99547.69;10155391;28;20039;-70
2021/11/30 12:51:37;;;;;;;18.70;3.35;;;;;;;6.08;99.63;99574.03;10142740;28;20045;-69
2021/11/30 12:56:52;;;;;;;15.70;2.85;;;;;;;5.88;100.00;99590.84;10165656;28;20078;-70
2021/11/30 13:02:20;;;;;;;10.30;1.42;;;;;;;5.70;97.93;99585.34;10147174;28;20073;-70
2021/11/30 13:07:19;;;;;;;17.83;2.33;;;;;;;5.66;97.71;99587.13;10143272;28;20046;-70
2021/11/30 13:12:21;;;;;;;13.95;2.80;;;;;;;5.74;97.91;99595.59;10135711;28;20477;-70
2021/11/30 13:17:19;;;;;;;15.70;2.60;;;;;;;5.68;97.74;99598.41;10142818;28;20365;-70
2021/11/30 13:22:18;;;;;;;15.85;2.00;;;;;;;5.64;95.14;99613.75;10159626;28;20137;-70
2021/11/30 13:27:35;;;;;;;21.02;2.90;;;;;;;5.61;93.51;99619.75;10140959;28;20112;-70
2021/11/30 13:32:43;;;;;;;20.77;4.30;;;;;;;5.69;93.68;99612.81;10142456;28;20046;-70
2021/11/30 13:38:03;;;;;;;16.88;3.15;;;;;;;5.70;93.22;99626.03;10157039;28;20192;-70
2021/11/30 13:43:01;;;;;;;17.80;2.85;;;;;;;5.69;91.73;99654.28;10163111;28;20054;-70
2021/11/30 13:47:57;;;;;;;17.92;2.42;;;;;;;5.67;91.68;99639.44;10137392;28;20133;-71
2021/11/30 13:53:27;;;;;;;19.40;3.63;;;;;;;5.66;92.44;99663.03;10139591;28;20050;-70
2021/11/30 13:58:33;;;;;;;20.95;2.95;;;;;;;5.66;91.36;99673.06;10109868;28;20051;-71
2021/11/30 14:03:43;;;;;;;17.08;2.55;;;;;;;5.59;87.53;99659.97;10116690;28;20233;-71
2021/11/30 14:08:39;;;;;;;18.05;3.05;;;;;;;5.56;89.93;99676.84;10118786;28;20088;-70
2021/11/30 14:13:37;;;;;;;24.48;2.92;;;;;;;5.53;90.66;99677.47;10123997;28;20137;-70
2021/11/30 14:18:57;;;;;;;14.85;2.55;;;;;;;5.50;91.43;99726.91;10129634;28;20063;-70
2021/11/30 14:24:14;;;;;;;17.70;2.15;;;;;;;5.49;93.72;99719.88;10137974;28;20101;-70
2021/11/30 14:29:15;;;;;;;22.10;2.60;;;;;;;5.58;90.79;99723.44;10144148;28;20046;-70
2021/11/30 14:34:13;;;;;;;17.65;2.08;;;;;;;5.64;91.64;99735.78;10154193;28;20553;-70
2021/11/30 14:39:26;;;;;;;21.10;3.05;;;;;;;5.69;91.62;99754.63;10162866;28;20129;-70
2021/11/30 14:44:32;;;;;;;16.63;2.27;;;;;;;5.71;90.35;99765.19;10136947;28;20567;-70
2021/11/30 14:49:33;;;;;;;18.50;2.80;;;;;;;5.73;92.07;99762.13;10145880;28;20051;-70
2021/11/30 14:54:29;;;;;;;14.57;2.28;;;;;;;5.70;90.51;99769.78;10137616;28;20045;-70
2021/11/30 14:59:31;;;;;;;17.10;2.85;;;;;;;5.74;91.81;99790.88;10146021;28;20042;-70
2021/11/30 15:04:34;;;;;;;11.18;1.25;;;;;;;5.56;95.83;99811.63;10139653;28;20038;-70
2021/11/30 15:09:31;;;;;;;16.05;2.67;;;;;;;5.38;100.00;99824.22;10146900;28;20103;-70
2021/11/30 15:14:34;;;;;;;15.05;3.40;;;;;;;5.34;100.00;99818.63;10166098;28;20066;-70
2021/11/30 15:19:36;;;;;;;19.33;3.35;;;;;;;5.38;100.00;99837.78;10133524;28;20526;-70
2021/11/30 15:24:42;;;;;;;20.00;3.60;;;;;;;5.38;100.00;99843.19;10128280;28;20047;-70
2021/11/30 15:29:40;;;;;;;22.83;3.03;;;;;;;5.39;100.00;99847.53;10129116;28;20125;-71
2021/11/30 15:34:38;;;;;;;14.40;2.38;;;;;;;5.39;100.00;99855.66;10131759;28;20108;-70
2021/11/30 15:39:36;;;;;;;10.65;1.60;;;;;;;5.38;100.00;99865.69;10149105;28;20552;-70
2021/11/30 15:44:34;;;;;;;15.55;3.20;;;;;;;5.43;100.00;99883.75;10122664;28;20566;-71
2021/11/30 15:49:30;;;;;;;10.55;1.50;;;;;;;5.44;100.00;99893.50;10135703;28;20045;-71
2021/11/30 15:54:30;;;;;;;18.17;2.47;;;;;;;5.43;100.00;99900.00;10132087;28;20074;-70
2021/11/30 15:59:26;;;;;;;20.17;3.22;;;;;;;5.41;100.00;99924.75;10134904;28;20042;-70
2021/11/30 16:04:24;;;;;;;14.55;3.30;;;;;;;5.40;100.00;99930.44;10140963;28;20050;-70
2021/11/30 16:09:21;;;;;;;10.25;2.83;;;;;;;5.47;100.00;99928.94;10150704;28;20097;-70
2021/11/30 16:14:20;;;;;;;21.00;4.30;;;;;;;5.44;100.00;99940.38;10144331;28;20160;-69
2021/11/30 16:19:16;;;;;;;25.55;4.78;;;;;;;5.39;100.00;99926.16;10147522;28;20077;-70
2021/11/30 16:24:13;;;;;;;16.67;3.67;;;;;;;5.34;100.00;99935.19;10150168;28;20128;-70
2021/11/30 16:29:10;;;;;;;13.23;2.28;;;;;;;5.32;100.00;99925.75;10140263;28;20100;-70
2021/11/30 16:34:11;;;;;;;22.13;3.78;;;;;;;5.38;100.00;99932.66;10134317;28;20054;-70
2021/11/30 16:39:12;;;;;;;14.98;2.97;;;;;;;5.34;100.00;99934.34;10138562;28;20054;-70
2021/11/30 16:44:09;;;;;;;21.58;3.25;;;;;;;5.18;100.00;99931.97;10141679;28;20100;-70
2021/11/30 16:49:06;;;;;;;19.75;3.15;;;;;;;5.11;100.00;99936.97;10137678;28;20478;-70
2021/11/30 16:54:04;;;;;;;21.92;3.97;;;;;;;5.02;100.00;99955.03;10138123;28;20120;-70
2021/11/30 16:59:01;;;;;;;16.70;3.42;;;;;;;4.92;100.00;99956.03;10128153;28;20070;-70
2021/11/30 17:03:58;;;;;;;18.20;2.50;;;;;;;4.83;100.00;99964.03;10132101;28;20061;-70
2021/11/30 17:08:55;;;;;;;20.00;3.58;;;;;;;4.84;100.00;99970.25;10132823;28;20038;-71
2021/11/30 17:13:52;;;;;;;9.25;1.83;;;;;;;4.80;100.00;99970.06;10135850;28;20502;-70
2021/11/30 17:18:50;;;;;;;14.45;2.20;;;;;;;4.73;100.00;99975.03;10120823;28;20675;-71
2021/11/30 17:23:52;;;;;;;10.40;1.92;;;;;;;4.68;100.00;99980.53;10122220;28;20066;-71
2021/11/30 17:28:49;;;;;;;18.77;2.75;;;;;;;4.67;100.00;99987.06;10114833;28;20043;-71
2021/11/30 17:33:47;;;;;;;11.65;2.63;;;;;;;4.63;100.00;99994.16;10114122;28;20104;-71
2021/11/30 17:38:45;;;;;;;17.88;2.67;;;;;;;4.61;100.00;100015.31;10106084;28;20756;-71
2021/11/30 17:43:41;;;;;;;17.23;2.28;;;;;;;4.60;100.00;100035.38;10107851;28;20485;-71
2021/11/30 17:48:39;;;;;;;18.95;3.75;;;;;;;4.51;100.00;100056.09;10131546;28;20062;-71
2021/11/30 17:53:36;;;;;;;18.80;3.30;;;;;;;4.51;100.00;100053.38;10120972;28;20092;-72
2021/11/30 17:58:34;;;;;;;19.83;3.67;;;;;;;4.54;100.00;100058.19;10123339;28;20067;-71
2021/11/30 18:03:33;;;;;;;19.13;2.60;;;;;;;4.50;100.00;100073.41;10131961;28;20055;-71
2021/11/30 18:08:30;;;;;;;11.93;1.90;;;;;;;4.49;100.00;100077.22;10155661;28;20058;-70
2021/11/30 18:13:28;;;;;;;16.75;3.63;;;;;;;4.54;100.00;100079.84;10162451;28;20053;-71
2021/11/30 18:18:24;;;;;;;24.90;3.97;;;;;;;4.52;100.00;100095.59;10145444;28;20065;-71
2021/11/30 18:23:21;;;;;;;18.00;3.80;;;;;;;4.45;100.00;100100.56;10135057;28;20050;-71
2021/11/30 18:28:18;;;;;;;19.98;3.60;;;;;;;4.41;100.00;100101.16;10131400;28;20066;-71
2021/11/30 18:33:15;;;;;;;17.45;3.08;;;;;;;4.36;100.00;100111.22;10150345;28;20046;-71
2021/11/30 18:38:11;;;;;;;23.27;5.15;;;;;;;4.32;100.00;100116.44;10143181;28;20134;-71
2021/11/30 18:43:08;;;;;;;21.40;4.63;;;;;;;4.34;100.00;100124.25;10163629;28;20043;-71
2021/11/30 18:48:05;;;;;;;16.73;4.90;;;;;;;4.30;100.00;100139.47;10162706;28;20043;-71
2021/11/30 18:53:02;;;;;;;23.48;5.80;;;;;;;4.31;100.00;100160.03;10161068;28;20058;-70
2021/11/30 18:57:59;;;;;;;24.88;4.97;;;;;;;4.40;100.00;100150.97;10142524;28;20526;-70
2021/11/30 19:02:55;;;;;;;21.63;4.97;;;;;;;4.49;100.00;100153.03;10139040;28;20077;-71
2021/11/30 19:07:53;;;;;;;22.08;5.65;;;;;;;4.60;100.00;100154.50;10150050;28;20481;-70
2021/11/30 19:12:49;;;;;;;22.95;4.85;;;;;;;4.70;100.00;100143.53;10171952;28;20053;-70
2021/11/30 19:17:46;;;;;;;23.83;3.00;;;;;;;4.72;100.00;100146.75;10156700;28;20046;-70
2021/11/30 19:22:42;;;;;;;18.77;3.70;;;;;;;4.63;100.00;100160.13;10157460;28;20604;-70
2021/11/30 19:27:39;;;;;;;18.05;3.10;;;;;;;4.45;100.00;100157.41;10141829;28;20043;-71
2021/11/30 19:32:38;;;;;;;21.40;5.63;;;;;;;4.40;100.00;100164.50;10154882;28;20564;-71
2021/11/30 19:37:38;;;;;;;25.13;4.00;;;;;;;4.32;100.00;100165.16;10154796;28;20556;-71
2021/11/30 19:42:35;;;;;;;17.10;3.22;;;;;;;4.25;100.00;100172.00;10151312;28;20058;-71
2021/11/30 19:47:31;;;;;;;19.63;4.15;;;;;;;4.15;100.00;100170.22;10142582;28;20038;-68
2021/11/30 19:52:28;;;;;;;16.90;3.45;;;;;;;4.02;100.00;100176.34;10153251;28;20054;-71
2021/11/30 19:57:25;;;;;;;15.57;2.58;;;;;;;4.06;100.00;100193.59;10150786;28;20110;-71
2021/11/30 20:07:37;;;;;;;15.93;3.40;;;;;;;4.28;100.00;100212.81;10143050;28;20399;-71
2021/11/30 20:12:34;;;;;;;23.73;5.20;;;;;;;4.39;100.00;100218.94;10169359;28;20498;-71
2021/11/30 20:17:30;;;;;;;20.27;3.38;;;;;;;4.42;100.00;100213.75;10161827;28;20045;-71
2021/11/30 20:22:27;;;;;;;25.95;3.58;;;;;;;4.67;100.00;100217.25;10136697;28;20042;-71
2021/11/30 20:27:23;;;;;;;19.35;2.67;;;;;;;4.62;100.00;100206.47;10143946;28;20054;-70
2021/11/30 20:32:20;;;;;;;21.77;3.42;;;;;;;4.78;100.00;100202.47;10144697;28;20562;-71
2021/11/30 20:42:33;;;;;;;21.95;3.65;;;;;;;4.79;100.00;100190.53;10138197;28;20479;-71
2021/11/30 20:47:31;;;;;;;21.20;3.13;;;;;;;4.85;100.00;100178.53;10142869;28;20070;-71
2021/11/30 20:52:28;;;;;;;21.70;3.72;;;;;;;4.87;100.00;100169.31;10127763;28;20606;-71
2021/11/30 20:57:25;;;;;;;23.15;3.60;;;;;;;4.82;100.00;100167.47;10130234;28;20512;-71
2021/11/30 21:02:34;;;;;;;19.95;3.55;;;;;;;4.92;100.00;100161.09;10137886;28;20081;-69
2021/11/30 21:07:33;;;;;;;16.45;3.33;;;;;;;4.92;100.00;100171.94;10139787;28;20395;-69
2021/11/30 21:12:30;;;;;;;19.92;4.35;;;;;;;4.89;100.00;100167.91;10121877;28;20113;-69
2021/11/30 21:17:27;;;;;;;20.35;3.53;;;;;;;4.85;100.00;100167.69;10119731;28;20039;-71
2021/11/30 21:22:24;;;;;;;23.50;3.55;;;;;;;4.84;100.00;100171.50;10142888;28;20088;-73
2021/11/30 21:27:22;;;;;;;20.42;3.80;;;;;;;4.84;100.00;100166.06;10126568;28;20477;-74
2021/11/30 21:32:19;;;;;;;23.75;3.60;;;;;;;4.85;100.00;100172.31;10117477;28;20507;-71
2021/11/30 21:37:19;;;;;;;33.22;6.38;;;;;;;4.88;100.00;100176.34;10122927;28;20395;-69
2021/11/30 21:42:17;;;;;;;20.40;3.15;;;;;;;4.84;100.00;100176.09;10114276;28;20054;-70
2021/11/30 21:47:15;;;;;;;20.13;3.30;;;;;;;4.78;100.00;100172.69;10137399;28;20130;-71
2021/11/30 21:52:11;;;;;;;22.95;4.15;;;;;;;4.72;100.00;100173.84;10142497;28;20181;-72
2021/11/30 21:57:09;;;;;;;16.05;3.55;;;;;;;4.67;100.00;100182.03;10137736;28;20130;-71
2021/11/30 22:02:06;;;;;;;16.67;2.65;;;;;;;4.62;100.00;100179.41;10147462;28;20100;-71
2021/11/30 22:07:03;;;;;;;19.17;2.72;;;;;;;4.61;100.00;100185.91;10157968;28;20053;-71
2021/11/30 22:12:00;;;;;;;20.40;3.40;;;;;;;4.71;100.00;100199.31;10172043;28;20077;-71
2021/11/30 22:16:56;;;;;;;12.80;3.05;;;;;;;4.69;100.00;100173.59;10158111;28;20078;-70
2021/11/30 22:21:53;;;;;;;20.65;2.55;;;;;;;4.70;100.00;100157.06;10159960;28;20077;-71
2021/11/30 22:26:49;;;;;;;15.68;2.35;;;;;;;4.71;100.00;100145.16;10152617;28;20042;-70
2021/11/30 22:31:47;;;;;;;17.92;2.35;;;;;;;4.69;100.00;100131.09;10165007;28;20080;-71
2021/11/30 22:36:44;;;;;;;19.83;3.00;;;;;;;4.60;100.00;100127.44;10145954;28;20043;-71
2021/11/30 22:41:42;;;;;;;18.38;4.03;;;;;;;4.52;100.00;100128.88;10153328;28;20038;-70
2021/11/30 22:46:38;;;;;;;24.48;3.30;;;;;;;4.53;100.00;100127.00;10143236;28;20098;-70
2021/11/30 22:51:35;;;;;;;22.75;3.85;;;;;;;4.53;100.00;100129.72;10159266;28;20513;-70
2021/11/30 22:56:33;;;;;;;16.05;2.55;;;;;;;4.56;100.00;100121.00;10160273;28;20635;-70
2021/11/30 23:01:29;;;;;;;21.33;3.55;;;;;;;4.55;100.00;100119.38;10152746;28;20042;-71
2021/11/30 23:06:26;;;;;;;17.85;2.58;;;;;;;4.64;100.00;100094.06;10145515;28;20113;-69
2021/11/30 23:11:22;;;;;;;15.88;3.97;;;;;;;4.63;100.00;100099.75;10167081;28;20562;-69